Impacts TAF Board
For situational awareness. Not to be used for flight planning purposes.
IDs:

KMIA - Miami Intl, FL, US

Issued at 0859 UTC 18 Jan 2019
Updated at 0910 UTC 18 Jan 2019
Potential Impact None Slight Moderate High
Time0853Z 18/10Z 18/11Z 18/12Z 18/13Z 18/14Z 18/15Z 18/16Z 18/17Z 18/18Z 18/19Z 18/20Z 18/21Z 18/22Z>>
Type OBS PRVL PRVL PRVL PRVL PRVL PRVL PRVL PRVL PRVL PRVL PRVL PRVL PRVL
VIS 10 >6 >6 >6 >6 >6 >6 >6 >6 >6 >6 >6 >6 >6
CIG -- 250 250 250 250 250 250 -- -- -- -- -- -- --
Cover FEW BKN BKN BKN BKN BKN BKN SCT SCT SCT SCT SCT SCT SCT
FltCat VFR VFR VFR VFR VFR VFR VFR VFR VFR VFR VFR VFR VFR VFR
WX -- -- -- -- -- -- -- -- -- -- -- -- -- --
WDir VRB VRB VRB VRB VRB VRB VRB 100 100 100 100 100 100 100
WSpd 0 3 3 3 3 3 3 7 7 7 7 7 7 7
WGst -- -- -- -- -- -- -- -- -- -- -- -- -- --
Raw TAF
KMIA 180859Z 1809/1912 VRB03KT P6SM FEW035 BKN250
  FM181600 10007KT P6SM SCT250
  FM190100 VRB04KT P6SM SCT250


Raw METAR
KMIA 180853Z 00000KT 10SM FEW035 FEW045 17/16 A3014 RMK AO2 SLP206 T01720156 56009
KMIA 180753Z 00000KT 10SM FEW038 SCT045 17/16 A3015 RMK AO2 SLP208 T01720156
KMIA 180653Z 29003KT 10SM FEW035 FEW045 18/17 A3016 RMK AO2 SLP211 T01830167

METAR Board
Radar Display
Forecast Discussion
For situational awareness. Not to be used for flight planning purposes.